createdAt,value
2022-10-19T00:01:26.542Z,14.20
2022-10-19T00:03:57.024Z,14.20
2022-10-19T00:06:28.265Z,14.10
2022-10-19T00:09:00.391Z,14.20
2022-10-19T00:11:30.676Z,14.30
2022-10-19T00:14:00.892Z,14.30
2022-10-19T00:16:32.041Z,14.40
2022-10-19T00:19:04.294Z,14.50
2022-10-19T00:21:33.097Z,14.50
2022-10-19T00:24:03.229Z,14.40
2022-10-19T00:26:31.973Z,14.40
2022-10-19T00:29:02.002Z,14.40
2022-10-19T00:31:30.958Z,14.20
2022-10-19T00:34:00.567Z,14.20
2022-10-19T00:36:31.116Z,14.30
2022-10-19T00:39:00.636Z,14.40
2022-10-19T00:41:32.896Z,14.40
2022-10-19T00:44:03.012Z,14.30
2022-10-19T00:46:34.205Z,14.40
2022-10-19T00:49:09.840Z,14.40
2022-10-19T00:51:43.523Z,14.30
2022-10-19T00:54:13.139Z,14.40
2022-10-19T00:56:45.698Z,14.40
2022-10-19T00:59:17.809Z,14.40
2022-10-19T01:01:47.929Z,14.50
2022-10-19T01:04:16.914Z,14.50
2022-10-19T01:06:45.615Z,14.60
2022-10-19T01:09:14.375Z,14.50
2022-10-19T01:11:53.001Z,14.40
2022-10-19T01:14:36.413Z,14.40
2022-10-19T01:17:14.368Z,14.40
2022-10-19T01:20:17.569Z,14.40
2022-10-19T01:23:01.566Z,14.30
2022-10-19T01:25:45.727Z,14.20
2022-10-19T01:28:30.379Z,14.30
2022-10-19T01:31:05.229Z,14.20
2022-10-19T01:33:43.237Z,14.20
2022-10-19T01:36:22.955Z,14.10
2022-10-19T01:38:57.986Z,14.00
2022-10-19T01:41:34.843Z,13.90
2022-10-19T01:44:12.036Z,13.90
2022-10-19T01:46:44.908Z,13.90
2022-10-19T01:49:20.522Z,13.80
2022-10-19T01:51:55.488Z,13.90
2022-10-19T01:54:26.930Z,13.90
2022-10-19T01:56:57.486Z,13.80
2022-10-19T01:59:27.593Z,13.80
2022-10-19T02:01:58.610Z,13.80
2022-10-19T02:04:27.808Z,13.90
2022-10-19T02:06:57.124Z,13.70
2022-10-19T02:09:26.033Z,13.60
2022-10-19T02:11:59.725Z,13.50
2022-10-19T02:14:31.663Z,13.60
2022-10-19T02:17:04.589Z,13.70
2022-10-19T02:19:33.385Z,13.70
2022-10-19T02:22:02.312Z,13.80
2022-10-19T02:24:31.075Z,13.80
2022-10-19T02:27:01.870Z,13.80
2022-10-19T02:29:30.708Z,13.80
2022-10-19T02:31:59.788Z,13.80
2022-10-19T02:34:31.633Z,13.80
2022-10-19T02:37:00.375Z,13.60
2022-10-19T02:39:29.291Z,13.60
2022-10-19T02:42:03.130Z,13.60
2022-10-19T02:44:38.187Z,13.60
2022-10-19T02:47:11.405Z,13.60
2022-10-19T02:49:43.078Z,13.60
2022-10-19T02:52:14.191Z,13.50
2022-10-19T02:54:45.378Z,13.50
2022-10-19T02:57:18.653Z,13.50
2022-10-19T02:59:47.620Z,13.50
2022-10-19T03:02:16.966Z,13.40
2022-10-19T03:07:22.572Z,13.30
2022-10-19T03:09:51.540Z,13.30
2022-10-19T03:12:20.264Z,13.40
2022-10-19T03:14:48.928Z,13.40
2022-10-19T03:17:17.638Z,13.40
2022-10-19T03:19:47.695Z,13.40
2022-10-19T03:22:16.560Z,13.40
2022-10-19T03:24:45.366Z,13.50
2022-10-19T03:27:14.025Z,13.40
2022-10-19T03:29:42.638Z,13.30
2022-10-19T03:32:11.283Z,13.40
2022-10-19T03:34:39.874Z,13.40
2022-10-19T03:37:10.004Z,13.40
2022-10-19T03:39:39.529Z,13.40
2022-10-19T03:42:08.209Z,13.40
2022-10-19T03:44:36.968Z,13.30
2022-10-19T03:47:05.571Z,13.30
2022-10-19T03:49:38.063Z,13.30
2022-10-19T03:52:11.260Z,13.30
2022-10-19T03:54:40.047Z,13.40
2022-10-19T03:57:08.683Z,13.40
2022-10-19T03:59:37.351Z,13.40
2022-10-19T04:02:06.029Z,13.50
2022-10-19T04:04:34.704Z,13.40
2022-10-19T04:07:03.359Z,13.40
2022-10-19T04:09:33.409Z,13.40
2022-10-19T04:12:02.096Z,13.30
2022-10-19T04:14:33.042Z,13.20
2022-10-19T04:17:03.390Z,13.30
2022-10-19T04:19:32.547Z,13.20
2022-10-19T04:22:01.260Z,13.20
2022-10-19T04:24:30.331Z,13.20
2022-10-19T04:27:00.455Z,13.10
2022-10-19T04:29:30.099Z,13.10
2022-10-19T04:31:59.916Z,13.20
2022-10-19T04:34:28.890Z,13.00
2022-10-19T04:36:59.592Z,13.00
2022-10-19T04:39:28.436Z,13.00
2022-10-19T04:41:57.094Z,13.00
2022-10-19T04:44:27.136Z,13.00
2022-10-19T04:46:55.821Z,13.00
2022-10-19T04:49:24.465Z,13.00
2022-10-19T04:51:53.183Z,12.90
2022-10-19T04:54:21.896Z,12.90
2022-10-19T04:56:50.605Z,13.00
2022-10-19T04:59:19.232Z,13.10
2022-10-19T05:01:49.310Z,13.10
2022-10-19T05:04:17.969Z,13.00
2022-10-19T05:06:46.606Z,13.00
2022-10-19T05:09:15.356Z,12.90
2022-10-19T05:11:44.104Z,13.00
2022-10-19T05:14:12.763Z,13.10
2022-10-19T05:16:41.392Z,13.10
2022-10-19T05:19:14.945Z,13.10
2022-10-19T05:21:43.695Z,13.20
2022-10-19T05:24:14.515Z,13.20
2022-10-19T05:26:43.199Z,13.30
2022-10-19T05:29:14.031Z,13.30
2022-10-19T05:31:44.442Z,13.30
2022-10-19T05:34:14.542Z,13.30
2022-10-19T05:36:43.246Z,13.40
2022-10-19T05:39:16.045Z,13.50
2022-10-19T05:41:45.614Z,13.50
2022-10-19T05:44:16.933Z,13.60
2022-10-19T05:46:46.178Z,13.50
2022-10-19T05:49:18.314Z,13.50
2022-10-19T05:51:47.385Z,13.60
2022-10-19T05:54:16.828Z,13.60
2022-10-19T05:56:46.245Z,13.60
2022-10-19T05:59:18.172Z,13.60
2022-10-19T06:01:48.010Z,13.80
2022-10-19T06:04:18.297Z,13.70
2022-10-19T06:06:47.181Z,13.80
2022-10-19T06:09:15.997Z,13.80
2022-10-19T06:11:45.222Z,13.90
2022-10-19T06:14:15.799Z,14.00
2022-10-19T06:16:46.660Z,14.00
2022-10-19T06:19:15.655Z,14.10
2022-10-19T06:21:46.455Z,14.10
2022-10-19T06:24:15.150Z,14.10
2022-10-19T06:26:43.920Z,14.20
2022-10-19T06:29:12.592Z,14.30
2022-10-19T06:31:41.248Z,14.30
2022-10-19T06:34:09.981Z,14.30
2022-10-19T06:36:38.863Z,14.50
2022-10-19T06:39:08.935Z,14.60
2022-10-19T06:41:37.598Z,14.70
2022-10-19T06:44:20.443Z,14.80
2022-10-19T06:46:49.355Z,15.00
2022-10-19T06:49:18.066Z,15.00
2022-10-19T06:51:47.635Z,15.10
2022-10-19T06:54:17.689Z,15.10
2022-10-19T06:56:46.422Z,15.20
2022-10-19T06:59:15.233Z,15.20
2022-10-19T07:01:43.941Z,15.30
2022-10-19T07:04:12.628Z,15.30
2022-10-19T07:06:41.649Z,15.30
2022-10-19T07:09:10.355Z,15.30
2022-10-19T07:11:45.707Z,15.40
2022-10-19T07:14:15.820Z,15.40
2022-10-19T07:16:44.433Z,15.50
2022-10-19T07:19:13.649Z,15.60
2022-10-19T07:21:43.874Z,15.70
2022-10-19T07:24:12.966Z,15.80
2022-10-19T07:26:43.049Z,15.90
2022-10-19T07:29:12.210Z,16.10
2022-10-19T07:31:41.632Z,16.20
2022-10-19T07:34:14.155Z,16.40
2022-10-19T07:36:45.564Z,16.60
2022-10-19T07:39:17.019Z,16.70
2022-10-19T07:41:47.637Z,16.80
2022-10-19T07:44:17.043Z,16.90
2022-10-19T07:46:45.743Z,17.10
2022-10-19T07:49:19.085Z,17.20
2022-10-19T07:51:48.165Z,17.30
2022-10-19T07:54:17.093Z,17.50
2022-10-19T07:56:47.289Z,17.50
2022-10-19T07:59:17.398Z,17.60
2022-10-19T08:01:47.675Z,17.70
2022-10-19T08:07:06.543Z,17.80
2022-10-19T08:12:25.570Z,17.90
2022-10-19T08:14:55.356Z,18.00
2022-10-19T08:17:24.313Z,18.10
2022-10-19T08:19:52.990Z,18.20
2022-10-19T08:22:21.711Z,18.30
2022-10-19T08:24:50.666Z,18.30
2022-10-19T08:27:20.999Z,18.30
2022-10-19T08:29:51.663Z,18.40
2022-10-19T08:32:20.379Z,18.40
2022-10-19T08:34:49.004Z,18.50
2022-10-19T08:37:32.562Z,18.60
2022-10-19T08:40:07.771Z,18.60
2022-10-19T08:42:51.670Z,18.60
2022-10-19T08:45:32.915Z,18.70
2022-10-19T08:48:11.591Z,18.80
2022-10-19T08:50:43.807Z,18.80
2022-10-19T08:53:15.547Z,18.90
2022-10-19T08:55:59.707Z,19.00
2022-10-19T08:58:47.539Z,19.10
2022-10-19T09:01:33.793Z,19.10
2022-10-19T09:04:11.285Z,19.10
2022-10-19T09:06:49.953Z,19.20
2022-10-19T09:09:21.864Z,19.30
2022-10-19T09:11:52.515Z,19.20
2022-10-19T09:14:27.046Z,19.20
2022-10-19T09:17:03.054Z,19.20
2022-10-19T09:19:32.478Z,19.30
2022-10-19T09:22:05.667Z,19.30
2022-10-19T09:24:43.942Z,19.30
2022-10-19T09:27:20.273Z,19.30
2022-10-19T09:29:52.462Z,19.30
2022-10-19T09:32:26.652Z,19.30
2022-10-19T09:34:58.037Z,19.40
2022-10-19T09:37:27.147Z,19.50
2022-10-19T09:39:56.287Z,19.50
2022-10-19T09:42:29.487Z,19.50
2022-10-19T09:44:59.974Z,19.60
2022-10-19T09:47:36.166Z,19.70
2022-10-19T09:50:18.004Z,19.80
2022-10-19T09:52:47.825Z,19.90
2022-10-19T09:55:30.736Z,20.10
2022-10-19T09:58:05.330Z,20.20
2022-10-19T10:00:37.471Z,20.30
2022-10-19T10:03:08.964Z,20.30
2022-10-19T10:05:39.798Z,20.30
2022-10-19T10:08:16.762Z,20.40
2022-10-19T10:10:47.626Z,20.30
2022-10-19T10:13:19.927Z,20.40
2022-10-19T10:15:51.164Z,20.50
2022-10-19T10:18:21.652Z,20.60
2022-10-19T10:21:04.798Z,20.70
2022-10-19T10:23:37.925Z,20.90
2022-10-19T10:26:16.768Z,21.00
2022-10-19T10:28:50.085Z,21.00
2022-10-19T10:31:23.961Z,21.00
2022-10-19T10:34:10.877Z,21.00
2022-10-19T10:36:52.617Z,21.10
2022-10-19T10:39:21.516Z,21.10
2022-10-19T10:41:50.723Z,21.10
2022-10-19T10:44:23.404Z,21.10
2022-10-19T10:46:56.710Z,21.30
2022-10-19T10:49:29.815Z,21.70
2022-10-19T10:52:02.738Z,21.70
2022-10-19T10:54:33.306Z,21.90
2022-10-19T10:57:13.320Z,22.00
2022-10-19T10:59:50.677Z,22.20
2022-10-19T11:02:37.149Z,22.10
2022-10-19T11:05:13.060Z,22.20
2022-10-19T11:07:46.078Z,22.30
2022-10-19T11:10:26.868Z,22.50
2022-10-19T11:13:03.541Z,22.40
2022-10-19T11:15:38.353Z,22.70
2022-10-19T11:18:18.466Z,22.60
2022-10-19T11:20:56.818Z,22.70
2022-10-19T11:23:39.016Z,22.70
2022-10-19T11:26:19.031Z,22.60
2022-10-19T11:28:58.923Z,22.40
2022-10-19T11:31:38.072Z,22.50
2022-10-19T11:34:22.332Z,23.00
2022-10-19T11:37:01.630Z,23.40
2022-10-19T11:39:43.117Z,23.60
2022-10-19T11:42:23.483Z,23.60
2022-10-19T11:45:06.243Z,23.80
2022-10-19T11:47:54.677Z,23.90
2022-10-19T11:50:36.912Z,23.80
2022-10-19T11:53:14.032Z,23.40
2022-10-19T11:55:48.921Z,23.40
2022-10-19T11:58:36.145Z,23.40
2022-10-19T12:01:13.841Z,23.50
2022-10-19T12:04:11.167Z,23.30
2022-10-19T12:06:48.703Z,23.40
2022-10-19T12:09:31.626Z,23.20
2022-10-19T12:12:21.181Z,23.20
2022-10-19T12:14:54.815Z,23.30
2022-10-19T12:17:28.871Z,23.60
2022-10-19T12:20:02.198Z,23.60
2022-10-19T12:22:37.446Z,23.60
2022-10-19T12:25:08.221Z,23.50
2022-10-19T12:27:39.425Z,23.30
2022-10-19T12:30:14.338Z,23.20
2022-10-19T12:32:54.418Z,23.30
2022-10-19T12:35:37.020Z,23.40
2022-10-19T12:38:10.221Z,23.50
2022-10-19T12:40:46.502Z,23.40
2022-10-19T12:43:20.940Z,23.40
2022-10-19T12:45:53.650Z,23.50
2022-10-19T12:48:26.186Z,23.70
2022-10-19T12:51:22.014Z,23.80
2022-10-19T12:53:51.146Z,23.70
2022-10-19T12:56:24.197Z,23.60
2022-10-19T12:58:59.895Z,23.70
2022-10-19T13:01:42.861Z,23.70
2022-10-19T13:04:14.956Z,23.80
2022-10-19T13:06:46.136Z,23.60
2022-10-19T13:09:28.541Z,23.60
2022-10-19T13:12:37.072Z,23.40
2022-10-19T13:15:28.103Z,23.10
2022-10-19T13:17:56.907Z,23.10
2022-10-19T13:20:52.757Z,23.20
2022-10-19T13:23:43.014Z,23.30
2022-10-19T13:26:35.872Z,23.30
2022-10-19T13:29:04.663Z,23.10
2022-10-19T13:31:37.568Z,23.00
2022-10-19T13:34:12.712Z,23.00
2022-10-19T13:37:00.881Z,22.90
2022-10-19T13:39:31.458Z,22.70
2022-10-19T13:42:00.576Z,22.70
2022-10-19T13:44:35.660Z,22.60
2022-10-19T13:47:41.209Z,22.40
2022-10-19T13:50:37.070Z,22.30
2022-10-19T13:53:28.123Z,22.30
2022-10-19T13:56:22.869Z,22.40
2022-10-19T13:59:27.819Z,22.30
2022-10-19T14:02:26.988Z,22.30
2022-10-19T14:05:15.947Z,22.40
2022-10-19T14:07:55.484Z,22.30
2022-10-19T14:10:32.669Z,22.30
2022-10-19T14:13:04.413Z,22.30
2022-10-19T14:15:34.970Z,22.10
2022-10-19T14:18:05.907Z,22.00
2022-10-19T14:20:39.011Z,22.10
2022-10-19T14:23:20.886Z,22.10
2022-10-19T14:25:53.314Z,22.00
2022-10-19T14:28:23.862Z,21.80
2022-10-19T14:31:00.541Z,21.70
2022-10-19T14:33:31.000Z,21.60
2022-10-19T14:36:01.656Z,21.60
2022-10-19T14:38:36.435Z,21.50
2022-10-19T14:41:06.824Z,21.40
2022-10-19T14:43:36.494Z,21.30
2022-10-19T14:46:11.606Z,21.20
2022-10-19T14:48:42.504Z,21.10
2022-10-19T14:51:30.221Z,21.00
2022-10-19T14:54:02.024Z,20.90
2022-10-19T14:56:35.797Z,20.90
2022-10-19T14:59:07.206Z,20.80
2022-10-19T15:01:37.349Z,20.80
2022-10-19T15:04:06.243Z,20.80
2022-10-19T15:06:42.459Z,20.80
2022-10-19T15:09:36.770Z,20.70
2022-10-19T15:12:15.882Z,20.60
2022-10-19T15:14:45.559Z,20.60
2022-10-19T15:17:25.891Z,20.60
2022-10-19T15:19:56.611Z,20.60
2022-10-19T15:22:39.953Z,20.60
2022-10-19T15:25:29.676Z,20.30
2022-10-19T15:27:58.446Z,20.30
2022-10-19T15:30:30.018Z,20.20
2022-10-19T15:33:14.558Z,20.10
2022-10-19T15:35:45.862Z,20.00
2022-10-19T15:38:24.533Z,19.90
2022-10-19T15:40:59.007Z,19.90
2022-10-19T15:43:46.981Z,19.90
2022-10-19T15:46:36.384Z,19.90
2022-10-19T15:49:23.912Z,19.80
2022-10-19T15:51:52.569Z,19.80
2022-10-19T15:54:24.065Z,19.70
2022-10-19T15:56:54.445Z,19.60
2022-10-19T15:59:24.366Z,19.60
2022-10-19T16:01:56.103Z,19.50
2022-10-19T16:04:25.111Z,19.50
2022-10-19T16:06:53.760Z,19.40
2022-10-19T16:09:23.874Z,19.30
2022-10-19T16:11:56.964Z,19.30
2022-10-19T16:14:26.647Z,19.30
2022-10-19T16:17:05.507Z,19.10
2022-10-19T16:19:35.779Z,19.10
2022-10-19T16:22:04.442Z,19.00
2022-10-19T16:24:37.921Z,19.00
2022-10-19T16:27:07.864Z,19.00
2022-10-19T16:29:36.645Z,19.00
2022-10-19T16:32:05.343Z,19.00
2022-10-19T16:34:33.989Z,18.90
2022-10-19T16:37:05.810Z,18.90
2022-10-19T16:39:37.372Z,18.90
2022-10-19T16:42:06.182Z,18.90
2022-10-19T16:44:34.789Z,18.90
2022-10-19T16:47:03.948Z,18.80
2022-10-19T16:49:32.709Z,18.60
2022-10-19T16:52:01.842Z,18.70
2022-10-19T16:54:31.099Z,18.60
2022-10-19T16:57:07.201Z,18.70
2022-10-19T16:59:39.126Z,18.70
2022-10-19T17:02:07.772Z,18.80
2022-10-19T17:04:36.621Z,18.80
2022-10-19T17:07:05.266Z,18.80
2022-10-19T17:09:41.838Z,18.70
2022-10-19T17:12:13.495Z,18.60
2022-10-19T17:14:44.187Z,18.50
2022-10-19T17:17:13.057Z,18.40
2022-10-19T17:19:41.993Z,18.20
2022-10-19T17:22:10.649Z,18.10
2022-10-19T17:24:39.782Z,18.00
2022-10-19T17:27:08.616Z,18.00
2022-10-19T17:29:38.720Z,17.90
2022-10-19T17:32:07.836Z,17.90
2022-10-19T17:34:36.539Z,17.90
2022-10-19T17:37:05.250Z,17.90
2022-10-19T17:39:33.903Z,17.80
2022-10-19T17:42:04.346Z,17.70
2022-10-19T17:44:33.114Z,17.70
2022-10-19T17:47:03.232Z,17.70
2022-10-19T17:49:31.989Z,17.70
2022-10-19T17:52:00.657Z,17.80
2022-10-19T17:54:29.501Z,17.80
2022-10-19T17:56:58.320Z,17.80
2022-10-19T17:59:34.622Z,17.80
2022-10-19T18:02:07.632Z,17.80
2022-10-19T18:07:10.265Z,17.60
2022-10-19T18:09:38.988Z,17.60
2022-10-19T18:12:13.286Z,17.60
2022-10-19T18:14:42.149Z,17.50
2022-10-19T18:17:12.596Z,17.40
2022-10-19T18:19:41.322Z,17.30
2022-10-19T18:22:09.924Z,17.30
2022-10-19T18:24:39.663Z,17.20
2022-10-19T18:27:08.315Z,17.10
2022-10-19T18:29:36.981Z,17.00
2022-10-19T18:34:55.749Z,17.00
2022-10-19T18:37:24.367Z,16.80
2022-10-19T18:39:53.011Z,16.80
2022-10-19T18:42:21.699Z,16.80
2022-10-19T18:44:50.384Z,16.80
2022-10-19T18:47:19.062Z,16.80
2022-10-19T18:49:47.675Z,16.80
2022-10-19T18:52:18.399Z,16.80
2022-10-19T18:54:47.143Z,16.70
2022-10-19T18:57:15.763Z,16.70
2022-10-19T18:59:44.427Z,16.80
2022-10-19T19:02:22.211Z,16.80
2022-10-19T19:04:51.657Z,16.80
2022-10-19T19:07:21.718Z,16.70
2022-10-19T19:09:52.421Z,16.70
2022-10-19T19:12:22.452Z,16.70
2022-10-19T19:14:51.094Z,16.70
2022-10-19T19:17:19.771Z,16.70
2022-10-19T19:19:48.385Z,16.60
2022-10-19T19:22:18.135Z,16.70
2022-10-19T19:24:51.290Z,16.60
2022-10-19T19:27:21.985Z,16.50
2022-10-19T19:29:51.093Z,16.50
2022-10-19T19:32:19.905Z,16.50
2022-10-19T19:34:53.821Z,16.40
2022-10-19T19:37:24.032Z,16.40
2022-10-19T19:39:54.100Z,16.40
2022-10-19T19:42:27.066Z,16.30
2022-10-19T19:44:56.661Z,16.20
2022-10-19T19:47:25.333Z,16.10
2022-10-19T19:49:53.994Z,16.00
2022-10-19T19:52:22.627Z,16.00
2022-10-19T19:54:53.640Z,15.90
2022-10-19T19:57:22.655Z,15.80
2022-10-19T19:59:52.620Z,15.90
2022-10-19T20:02:21.295Z,15.90
2022-10-19T20:04:49.974Z,15.90
2022-10-19T20:07:18.609Z,15.80
2022-10-19T20:09:47.244Z,15.60
2022-10-19T20:12:17.316Z,15.80
2022-10-19T20:14:46.016Z,16.00
2022-10-19T20:17:15.875Z,16.00
2022-10-19T20:19:45.013Z,15.90
2022-10-19T20:22:13.676Z,15.80
2022-10-19T20:24:42.340Z,15.80
2022-10-19T20:27:11.045Z,15.90
2022-10-19T20:29:41.167Z,15.90
2022-10-19T20:32:09.806Z,15.80
2022-10-19T20:34:38.476Z,15.60
2022-10-19T20:37:07.135Z,15.60
2022-10-19T20:39:35.768Z,15.60
2022-10-19T20:42:04.421Z,15.60
2022-10-19T20:44:33.075Z,15.60
2022-10-19T20:47:03.134Z,15.60
2022-10-19T20:49:31.852Z,15.60
2022-10-19T20:52:00.571Z,15.70
2022-10-19T20:54:29.289Z,15.50
2022-10-19T20:56:57.912Z,15.50
2022-10-19T20:59:27.945Z,15.40
2022-10-19T21:01:58.066Z,15.30
2022-10-19T21:04:28.156Z,15.20
2022-10-19T21:06:57.368Z,15.20
2022-10-19T21:09:26.580Z,15.20
2022-10-19T21:11:55.197Z,15.30
2022-10-19T21:14:28.260Z,15.20
2022-10-19T21:16:58.301Z,15.20
2022-10-19T21:19:29.981Z,15.20
2022-10-19T21:22:02.901Z,15.40
2022-10-19T21:24:33.536Z,15.40
2022-10-19T21:27:03.983Z,15.50
2022-10-19T21:29:33.023Z,15.50
2022-10-19T21:32:01.802Z,15.50
2022-10-19T21:34:32.959Z,15.50
2022-10-19T21:37:02.499Z,15.50
2022-10-19T21:39:31.153Z,15.40
2022-10-19T21:41:59.855Z,15.40
2022-10-19T21:44:28.528Z,15.40
2022-10-19T21:46:57.115Z,15.30
2022-10-19T21:49:25.758Z,15.20
2022-10-19T21:51:56.403Z,15.00
2022-10-19T21:54:26.612Z,15.00
2022-10-19T21:56:56.634Z,15.10
2022-10-19T21:59:25.834Z,15.20
2022-10-19T22:01:56.461Z,15.20
2022-10-19T22:04:25.410Z,15.20
2022-10-19T22:06:55.492Z,15.30
2022-10-19T22:09:24.509Z,15.20
2022-10-19T22:11:53.179Z,15.10
2022-10-19T22:14:21.851Z,14.90
2022-10-19T22:16:50.539Z,14.90
2022-10-19T22:19:19.641Z,15.10
2022-10-19T22:21:48.335Z,15.10
2022-10-19T22:24:18.430Z,15.00
2022-10-19T22:26:50.839Z,14.80
2022-10-19T22:29:19.910Z,14.70
2022-10-19T22:31:48.571Z,14.80
2022-10-19T22:34:18.703Z,14.80
2022-10-19T22:36:47.539Z,14.80
2022-10-19T22:39:18.015Z,14.80
2022-10-19T22:42:41.255Z,14.70
2022-10-19T22:46:23.402Z,14.80
2022-10-19T22:50:05.224Z,14.80
2022-10-19T22:52:58.784Z,14.80
2022-10-19T22:55:28.955Z,14.90
2022-10-19T22:57:57.599Z,14.80
2022-10-19T23:00:26.394Z,14.90
2022-10-19T23:02:55.238Z,14.90
2022-10-19T23:05:23.907Z,14.90
2022-10-19T23:07:52.594Z,14.90
2022-10-19T23:10:21.315Z,14.90
2022-10-19T23:12:52.608Z,14.90
2022-10-19T23:15:21.419Z,14.90
2022-10-19T23:17:50.106Z,15.00
2022-10-19T23:20:19.030Z,14.90
2022-10-19T23:22:47.876Z,14.90
2022-10-19T23:25:17.601Z,14.90
2022-10-19T23:27:46.227Z,14.90
2022-10-19T23:30:17.313Z,15.00
2022-10-19T23:32:45.972Z,15.00
2022-10-19T23:35:14.676Z,15.00
2022-10-19T23:37:43.336Z,15.00
2022-10-19T23:40:12.890Z,15.00
2022-10-19T23:42:41.498Z,14.90
2022-10-19T23:45:10.817Z,14.90
2022-10-19T23:47:41.069Z,14.80
2022-10-19T23:50:10.247Z,14.70
2022-10-19T23:52:38.908Z,14.70
2022-10-19T23:55:08.948Z,14.60
2022-10-19T23:57:37.927Z,14.70
